sensor_id;sensor_type;location;lat;lon;timestamp;pressure;altitude;pressure_sealevel;temperature;humidity
57050;BME280;42935;50.966;16.992;2022-10-31T00:00:18;101824.15;;;7.51;100.00
57050;BME280;42935;50.966;16.992;2022-10-31T00:03:33;101839.78;;;7.64;100.00
57050;BME280;42935;50.966;16.992;2022-10-31T00:06:41;101841.67;;;7.54;100.00
57050;BME280;42935;50.966;16.992;2022-10-31T00:09:55;101827.54;;;7.58;100.00
57050;BME280;42935;50.966;16.992;2022-10-31T00:13:06;101827.75;;;7.63;100.00
57050;BME280;42935;50.966;16.992;2022-10-31T00:16:24;101829.21;;;7.66;100.00
57050;BME280;42935;50.966;16.992;2022-10-31T00:19:38;101813.16;;;7.56;100.00
57050;BME280;42935;50.966;16.992;2022-10-31T00:22:49;101830.25;;;7.60;100.00
57050;BME280;42935;50.966;16.992;2022-10-31T00:26:01;101830.12;;;7.59;100.00
57050;BME280;42935;50.966;16.992;2022-10-31T00:29:07;101837.53;;;7.44;100.00
57050;BME280;42935;50.966;16.992;2022-10-31T00:32:29;101839.25;;;7.48;100.00
57050;BME280;42935;50.966;16.992;2022-10-31T00:35:51;101848.82;;;7.50;100.00
57050;BME280;42935;50.966;16.992;2022-10-31T00:38:58;101842.80;;;7.48;100.00
57050;BME280;42935;50.966;16.992;2022-10-31T00:42:18;101838.59;;;7.38;100.00
57050;BME280;42935;50.966;16.992;2022-10-31T00:45:33;101853.95;;;7.37;100.00
57050;BME280;42935;50.966;16.992;2022-10-31T00:48:50;101845.62;;;7.27;100.00
57050;BME280;42935;50.966;16.992;2022-10-31T00:51:59;101855.10;;;7.41;100.00
57050;BME280;42935;50.966;16.992;2022-10-31T00:55:18;101849.46;;;7.17;100.00
57050;BME280;42935;50.966;16.992;2022-10-31T00:58:29;101848.53;;;7.25;100.00
57050;BME280;42935;50.966;16.992;2022-10-31T01:01:36;101854.41;;;7.11;100.00
57050;BME280;42935;50.966;16.992;2022-10-31T01:04:48;101847.70;;;7.10;100.00
57050;BME280;42935;50.966;16.992;2022-10-31T01:08:02;101860.83;;;7.12;100.00
57050;BME280;42935;50.966;16.992;2022-10-31T01:11:14;101861.91;;;7.01;100.00
57050;BME280;42935;50.966;16.992;2022-10-31T01:14:25;101861.91;;;6.90;100.00
57050;BME280;42935;50.966;16.992;2022-10-31T01:17:54;101861.83;;;6.98;100.00
57050;BME280;42935;50.966;16.992;2022-10-31T01:21:08;101862.13;;;6.99;100.00
57050;BME280;42935;50.966;16.992;2022-10-31T01:24:26;101860.13;;;6.91;100.00
57050;BME280;42935;50.966;16.992;2022-10-31T01:27:39;101867.85;;;6.67;100.00
57050;BME280;42935;50.966;16.992;2022-10-31T01:30:49;101855.09;;;6.60;100.00
57050;BME280;42935;50.966;16.992;2022-10-31T01:33:56;101856.48;;;6.72;100.00
57050;BME280;42935;50.966;16.992;2022-10-31T01:37:11;101845.91;;;6.62;100.00
57050;BME280;42935;50.966;16.992;2022-10-31T01:40:29;101855.02;;;6.64;100.00
57050;BME280;42935;50.966;16.992;2022-10-31T01:50:34;101843.74;;;6.90;100.00
57050;BME280;42935;50.966;16.992;2022-10-31T01:53:47;101853.98;;;6.94;100.00
57050;BME280;42935;50.966;16.992;2022-10-31T01:56:55;101855.52;;;6.93;100.00
57050;BME280;42935;50.966;16.992;2022-10-31T02:00:05;101858.55;;;6.98;100.00
57050;BME280;42935;50.966;16.992;2022-10-31T02:03:24;101858.75;;;6.96;100.00
57050;BME280;42935;50.966;16.992;2022-10-31T02:06:46;101861.51;;;6.94;100.00
57050;BME280;42935;50.966;16.992;2022-10-31T02:09:57;101860.98;;;7.02;100.00
57050;BME280;42935;50.966;16.992;2022-10-31T02:13:08;101850.16;;;6.88;100.00
57050;BME280;42935;50.966;16.992;2022-10-31T02:16:22;101851.23;;;6.93;100.00
57050;BME280;42935;50.966;16.992;2022-10-31T02:23:11;101869.69;;;6.95;100.00
57050;BME280;42935;50.966;16.992;2022-10-31T02:47:58;101868.00;;;6.66;100.00
57050;BME280;42935;50.966;16.992;2022-10-31T02:51:12;101880.63;;;6.72;100.00
57050;BME280;42935;50.966;16.992;2022-10-31T02:54:23;101878.70;;;6.71;100.00
57050;BME280;42935;50.966;16.992;2022-10-31T02:57:42;101880.02;;;6.65;100.00
57050;BME280;42935;50.966;16.992;2022-10-31T03:10:55;101894.03;;;6.37;100.00
57050;BME280;42935;50.966;16.992;2022-10-31T03:14:12;101891.70;;;6.44;100.00
57050;BME280;42935;50.966;16.992;2022-10-31T03:17:33;101894.03;;;6.33;100.00
57050;BME280;42935;50.966;16.992;2022-10-31T03:20:57;101897.60;;;6.34;100.00
57050;BME280;42935;50.966;16.992;2022-10-31T03:24:07;101898.17;;;6.32;100.00
57050;BME280;42935;50.966;16.992;2022-10-31T03:27:20;101896.59;;;6.23;100.00
57050;BME280;42935;50.966;16.992;2022-10-31T03:30:30;101895.20;;;6.27;100.00
57050;BME280;42935;50.966;16.992;2022-10-31T03:33:49;101891.01;;;6.23;100.00
57050;BME280;42935;50.966;16.992;2022-10-31T03:36:59;101904.97;;;6.21;100.00
57050;BME280;42935;50.966;16.992;2022-10-31T03:40:14;101910.20;;;6.17;100.00
57050;BME280;42935;50.966;16.992;2022-10-31T03:43:32;101865.34;;;6.03;100.00
57050;BME280;42935;50.966;16.992;2022-10-31T03:46:43;101905.27;;;6.27;100.00
57050;BME280;42935;50.966;16.992;2022-10-31T03:49:57;101918.22;;;5.88;100.00
57050;BME280;42935;50.966;16.992;2022-10-31T03:53:22;101913.70;;;5.64;100.00
57050;BME280;42935;50.966;16.992;2022-10-31T04:00:05;101918.59;;;5.91;100.00
57050;BME280;42935;50.966;16.992;2022-10-31T04:03:20;101916.97;;;5.91;100.00
57050;BME280;42935;50.966;16.992;2022-10-31T04:06:34;101922.15;;;5.84;100.00
57050;BME280;42935;50.966;16.992;2022-10-31T04:09:54;101927.65;;;5.86;100.00
57050;BME280;42935;50.966;16.992;2022-10-31T04:13:12;101934.13;;;5.44;100.00
57050;BME280;42935;50.966;16.992;2022-10-31T04:16:23;101919.31;;;5.52;100.00
57050;BME280;42935;50.966;16.992;2022-10-31T04:19:33;101927.69;;;5.78;100.00
57050;BME280;42935;50.966;16.992;2022-10-31T04:22:39;101931.52;;;5.76;100.00
57050;BME280;42935;50.966;16.992;2022-10-31T04:25:49;101921.54;;;5.76;100.00
57050;BME280;42935;50.966;16.992;2022-10-31T04:28:59;101930.06;;;5.68;100.00
57050;BME280;42935;50.966;16.992;2022-10-31T04:32:11;101920.99;;;5.85;100.00
57050;BME280;42935;50.966;16.992;2022-10-31T04:35:22;101922.84;;;5.84;100.00
57050;BME280;42935;50.966;16.992;2022-10-31T04:38:31;101903.16;;;5.62;100.00
57050;BME280;42935;50.966;16.992;2022-10-31T04:41:41;101938.97;;;5.81;100.00
57050;BME280;42935;50.966;16.992;2022-10-31T04:44:46;101942.55;;;5.38;100.00
57050;BME280;42935;50.966;16.992;2022-10-31T04:48:24;101931.73;;;5.41;100.00
57050;BME280;42935;50.966;16.992;2022-10-31T04:51:33;101941.54;;;5.28;100.00
57050;BME280;42935;50.966;16.992;2022-10-31T04:54:39;101896.13;;;5.13;100.00
57050;BME280;42935;50.966;16.992;2022-10-31T04:57:50;101943.83;;;5.51;100.00
57050;BME280;42935;50.966;16.992;2022-10-31T05:00:55;101944.91;;;5.42;100.00
57050;BME280;42935;50.966;16.992;2022-10-31T05:04:01;101947.34;;;5.45;100.00
57050;BME280;42935;50.966;16.992;2022-10-31T05:07:08;101938.59;;;5.50;100.00
57050;BME280;42935;50.966;16.992;2022-10-31T05:10:20;101942.08;;;5.65;100.00
57050;BME280;42935;50.966;16.992;2022-10-31T05:13:31;101939.98;;;5.72;100.00
57050;BME280;42935;50.966;16.992;2022-10-31T05:16:37;101928.45;;;5.74;100.00
57050;BME280;42935;50.966;16.992;2022-10-31T05:19:44;101939.02;;;5.77;100.00
57050;BME280;42935;50.966;16.992;2022-10-31T05:22:59;101943.45;;;5.68;100.00
57050;BME280;42935;50.966;16.992;2022-10-31T05:26:09;101946.32;;;5.62;100.00
57050;BME280;42935;50.966;16.992;2022-10-31T05:29:19;101948.11;;;5.67;100.00
57050;BME280;42935;50.966;16.992;2022-10-31T05:32:42;101941.77;;;5.64;100.00
57050;BME280;42935;50.966;16.992;2022-10-31T05:35:53;101953.14;;;5.77;100.00
57050;BME280;42935;50.966;16.992;2022-10-31T05:39:04;101954.29;;;5.77;100.00
57050;BME280;42935;50.966;16.992;2022-10-31T05:42:11;101954.82;;;5.89;100.00
57050;BME280;42935;50.966;16.992;2022-10-31T05:45:22;101955.55;;;5.85;100.00
57050;BME280;42935;50.966;16.992;2022-10-31T05:48:31;101957.23;;;5.90;100.00
57050;BME280;42935;50.966;16.992;2022-10-31T05:51:41;101954.13;;;5.93;100.00
57050;BME280;42935;50.966;16.992;2022-10-31T05:54:48;101947.48;;;5.82;100.00
57050;BME280;42935;50.966;16.992;2022-10-31T05:57:54;101956.81;;;5.80;100.00
57050;BME280;42935;50.966;16.992;2022-10-31T06:01:01;101947.44;;;5.72;100.00
57050;BME280;42935;50.966;16.992;2022-10-31T06:04:08;101952.68;;;5.82;100.00
57050;BME280;42935;50.966;16.992;2022-10-31T06:07:18;101943.97;;;5.72;100.00
57050;BME280;42935;50.966;16.992;2022-10-31T06:10:24;101956.41;;;5.86;100.00
57050;BME280;42935;50.966;16.992;2022-10-31T06:13:34;101955.63;;;5.93;100.00
57050;BME280;42935;50.966;16.992;2022-10-31T06:16:48;101963.29;;;6.04;100.00
57050;BME280;42935;50.966;16.992;2022-10-31T06:20:01;101966.92;;;6.03;100.00
57050;BME280;42935;50.966;16.992;2022-10-31T06:23:12;101968.01;;;6.08;100.00
57050;BME280;42935;50.966;16.992;2022-10-31T06:26:19;101971.39;;;6.11;100.00
57050;BME280;42935;50.966;16.992;2022-10-31T06:29:25;101974.88;;;6.15;100.00
57050;BME280;42935;50.966;16.992;2022-10-31T06:32:31;101981.88;;;6.18;100.00
57050;BME280;42935;50.966;16.992;2022-10-31T06:35:38;101983.87;;;6.26;100.00
57050;BME280;42935;50.966;16.992;2022-10-31T06:38:53;101991.21;;;6.31;100.00
57050;BME280;42935;50.966;16.992;2022-10-31T06:42:03;101985.41;;;6.37;100.00
57050;BME280;42935;50.966;16.992;2022-10-31T06:45:12;101987.09;;;6.43;100.00
57050;BME280;42935;50.966;16.992;2022-10-31T06:48:19;101972.67;;;6.47;100.00
57050;BME280;42935;50.966;16.992;2022-10-31T06:51:26;101976.24;;;6.48;100.00
57050;BME280;42935;50.966;16.992;2022-10-31T06:55:06;101987.34;;;6.69;100.00
57050;BME280;42935;50.966;16.992;2022-10-31T06:58:18;101987.62;;;6.83;100.00
57050;BME280;42935;50.966;16.992;2022-10-31T07:01:32;101995.29;;;6.89;100.00
57050;BME280;42935;50.966;16.992;2022-10-31T07:04:40;101996.13;;;7.01;100.00
57050;BME280;42935;50.966;16.992;2022-10-31T07:08:01;102001.37;;;7.06;100.00
57050;BME280;42935;50.966;16.992;2022-10-31T07:11:09;102006.12;;;7.17;100.00
57050;BME280;42935;50.966;16.992;2022-10-31T07:14:57;102008.20;;;7.22;100.00
57050;BME280;42935;50.966;16.992;2022-10-31T07:18:06;102004.93;;;7.54;100.00
57050;BME280;42935;50.966;16.992;2022-10-31T07:21:12;102013.27;;;7.68;100.00
57050;BME280;42935;50.966;16.992;2022-10-31T07:24:55;102018.56;;;7.79;100.00
57050;BME280;42935;50.966;16.992;2022-10-31T07:28:07;102015.08;;;7.96;100.00
57050;BME280;42935;50.966;16.992;2022-10-31T07:31:18;102008.55;;;7.96;100.00
57050;BME280;42935;50.966;16.992;2022-10-31T07:34:32;102017.23;;;8.14;100.00
57050;BME280;42935;50.966;16.992;2022-10-31T07:37:45;102006.68;;;8.23;100.00
57050;BME280;42935;50.966;16.992;2022-10-31T07:41:26;102015.53;;;8.33;100.00
57050;BME280;42935;50.966;16.992;2022-10-31T07:44:32;102009.77;;;8.49;100.00
57050;BME280;42935;50.966;16.992;2022-10-31T07:47:48;102016.70;;;8.73;100.00
57050;BME280;42935;50.966;16.992;2022-10-31T07:50:55;102009.29;;;8.76;100.00
57050;BME280;42935;50.966;16.992;2022-10-31T07:54:05;102018.23;;;8.94;100.00
57050;BME280;42935;50.966;16.992;2022-10-31T07:57:12;102025.48;;;9.09;100.00
57050;BME280;42935;50.966;16.992;2022-10-31T08:00:19;102026.19;;;9.24;100.00
57050;BME280;42935;50.966;16.992;2022-10-31T08:03:28;102026.51;;;9.54;100.00
57050;BME280;42935;50.966;16.992;2022-10-31T08:06:43;102027.19;;;9.75;100.00
57050;BME280;42935;50.966;16.992;2022-10-31T08:09:54;102029.70;;;9.86;100.00
57050;BME280;42935;50.966;16.992;2022-10-31T08:13:08;102023.21;;;10.09;100.00
57050;BME280;42935;50.966;16.992;2022-10-31T08:16:15;102019.16;;;10.65;100.00
57050;BME280;42935;50.966;16.992;2022-10-31T08:19:25;102016.45;;;11.43;100.00
57050;BME280;42935;50.966;16.992;2022-10-31T08:22:31;102009.77;;;12.11;100.00
57050;BME280;42935;50.966;16.992;2022-10-31T08:25:41;102007.16;;;12.60;100.00
57050;BME280;42935;50.966;16.992;2022-10-31T08:28:49;102010.41;;;12.75;100.00
57050;BME280;42935;50.966;16.992;2022-10-31T08:31:58;102015.15;;;12.85;100.00
57050;BME280;42935;50.966;16.992;2022-10-31T08:35:19;102003.73;;;13.16;100.00
57050;BME280;42935;50.966;16.992;2022-10-31T08:38:26;102008.95;;;13.05;100.00
57050;BME280;42935;50.966;16.992;2022-10-31T08:41:33;102005.88;;;13.36;100.00
57050;BME280;42935;50.966;16.992;2022-10-31T08:44:43;102008.67;;;13.67;100.00
57050;BME280;42935;50.966;16.992;2022-10-31T08:48:03;102007.86;;;13.91;100.00
57050;BME280;42935;50.966;16.992;2022-10-31T08:51:13;102007.97;;;14.33;100.00
57050;BME280;42935;50.966;16.992;2022-10-31T08:54:19;102005.09;;;14.71;100.00
57050;BME280;42935;50.966;16.992;2022-10-31T08:57:26;102006.65;;;14.61;100.00
57050;BME280;42935;50.966;16.992;2022-10-31T09:00:37;101993.77;;;15.10;100.00
57050;BME280;42935;50.966;16.992;2022-10-31T09:04:20;101997.47;;;15.08;100.00
57050;BME280;42935;50.966;16.992;2022-10-31T09:07:32;102003.55;;;15.44;100.00
57050;BME280;42935;50.966;16.992;2022-10-31T09:11:10;102006.51;;;15.70;100.00
57050;BME280;42935;50.966;16.992;2022-10-31T09:14:49;102004.68;;;15.72;100.00
57050;BME280;42935;50.966;16.992;2022-10-31T09:18:05;101995.30;;;15.80;100.00
57050;BME280;42935;50.966;16.992;2022-10-31T09:21:20;102002.87;;;16.40;97.36
57050;BME280;42935;50.966;16.992;2022-10-31T09:24:27;102005.68;;;16.36;96.79
57050;BME280;42935;50.966;16.992;2022-10-31T09:27:37;102008.30;;;16.28;99.31
57050;BME280;42935;50.966;16.992;2022-10-31T09:30:48;102009.22;;;16.32;99.89
57050;BME280;42935;50.966;16.992;2022-10-31T09:33:55;102002.38;;;16.40;99.89
57050;BME280;42935;50.966;16.992;2022-10-31T09:37:02;102001.84;;;16.54;96.99
57050;BME280;42935;50.966;16.992;2022-10-31T09:40:10;102011.03;;;16.95;90.96
57050;BME280;42935;50.966;16.992;2022-10-31T09:47:23;102012.45;;;17.02;93.88
57050;BME280;42935;50.966;16.992;2022-10-31T09:50:36;102009.41;;;17.01;91.85
57050;BME280;42935;50.966;16.992;2022-10-31T09:57:19;102007.08;;;17.55;85.27
57050;BME280;42935;50.966;16.992;2022-10-31T10:00:31;102009.96;;;17.76;87.37
57050;BME280;42935;50.966;16.992;2022-10-31T10:03:47;102012.46;;;17.67;87.72
57050;BME280;42935;50.966;16.992;2022-10-31T10:06:56;102010.91;;;17.69;89.33
57050;BME280;42935;50.966;16.992;2022-10-31T10:10:17;102012.61;;;17.85;90.44
57050;BME280;42935;50.966;16.992;2022-10-31T10:16:55;102005.66;;;17.49;89.62
57050;BME280;42935;50.966;16.992;2022-10-31T10:23:37;101997.38;;;17.66;89.47
57050;BME280;42935;50.966;16.992;2022-10-31T10:40:18;101993.41;;;18.10;84.92
57050;BME280;42935;50.966;16.992;2022-10-31T10:43:34;101992.15;;;18.28;87.05
57050;BME280;42935;50.966;16.992;2022-10-31T10:46:51;101979.59;;;18.36;84.37
57050;BME280;42935;50.966;16.992;2022-10-31T10:50:20;101983.99;;;18.37;80.86
57050;BME280;42935;50.966;16.992;2022-10-31T11:00:57;101981.24;;;18.62;83.35
57050;BME280;42935;50.966;16.992;2022-10-31T11:14:14;101959.28;;;19.09;80.92
57050;BME280;42935;50.966;16.992;2022-10-31T11:17:35;101963.49;;;19.14;77.60
57050;BME280;42935;50.966;16.992;2022-10-31T11:20:52;101957.42;;;19.14;79.55
57050;BME280;42935;50.966;16.992;2022-10-31T11:27:26;101948.20;;;19.44;78.66
57050;BME280;42935;50.966;16.992;2022-10-31T11:34:05;101947.75;;;19.38;76.18
57050;BME280;42935;50.966;16.992;2022-10-31T11:37:30;101952.51;;;19.45;78.47
57050;BME280;42935;50.966;16.992;2022-10-31T11:40:53;101953.45;;;19.64;78.28
57050;BME280;42935;50.966;16.992;2022-10-31T11:44:20;101947.31;;;19.68;76.90
57050;BME280;42935;50.966;16.992;2022-10-31T11:47:28;101948.03;;;19.69;74.86
57050;BME280;42935;50.966;16.992;2022-10-31T11:50:41;101947.27;;;19.68;76.54
57050;BME280;42935;50.966;16.992;2022-10-31T11:53:55;101947.14;;;19.79;75.29
57050;BME280;42935;50.966;16.992;2022-10-31T11:57:04;101937.99;;;19.77;76.68
57050;BME280;42935;50.966;16.992;2022-10-31T12:00:27;101945.66;;;19.69;77.03
57050;BME280;42935;50.966;16.992;2022-10-31T12:04:11;101938.05;;;19.89;77.79
57050;BME280;42935;50.966;16.992;2022-10-31T12:07:18;101933.00;;;19.90;77.39
57050;BME280;42935;50.966;16.992;2022-10-31T12:10:37;101931.81;;;20.08;76.79
57050;BME280;42935;50.966;16.992;2022-10-31T12:17:14;101934.65;;;20.06;76.89
57050;BME280;42935;50.966;16.992;2022-10-31T12:23:56;101926.78;;;20.12;76.68
57050;BME280;42935;50.966;16.992;2022-10-31T12:37:30;101928.98;;;20.34;74.72
57050;BME280;42935;50.966;16.992;2022-10-31T12:54:43;101922.87;;;20.11;75.50
57050;BME280;42935;50.966;16.992;2022-10-31T12:57:59;101913.44;;;19.85;76.89
57050;BME280;42935;50.966;16.992;2022-10-31T13:01:18;101918.39;;;20.08;77.56
57050;BME280;42935;50.966;16.992;2022-10-31T13:07:59;101913.94;;;19.91;76.06
57050;BME280;42935;50.966;16.992;2022-10-31T13:11:17;101904.54;;;19.95;77.70
57050;BME280;42935;50.966;16.992;2022-10-31T13:14:34;101909.05;;;19.91;77.43
57050;BME280;42935;50.966;16.992;2022-10-31T13:17:51;101915.09;;;19.73;77.55
57050;BME280;42935;50.966;16.992;2022-10-31T13:21:08;101911.85;;;19.87;77.52
57050;BME280;42935;50.966;16.992;2022-10-31T13:24:30;101906.26;;;19.95;77.09
57050;BME280;42935;50.966;16.992;2022-10-31T13:30:55;101902.62;;;20.03;77.73
57050;BME280;42935;50.966;16.992;2022-10-31T13:34:09;101894.80;;;19.95;76.50
57050;BME280;42935;50.966;16.992;2022-10-31T13:37:31;101898.89;;;20.15;76.45
57050;BME280;42935;50.966;16.992;2022-10-31T13:40:52;101877.34;;;20.38;78.67
57050;BME280;42935;50.966;16.992;2022-10-31T13:47:28;101888.19;;;20.48;77.45
57050;BME280;42935;50.966;16.992;2022-10-31T13:50:42;101883.74;;;20.78;76.40
57050;BME280;42935;50.966;16.992;2022-10-31T13:53:59;101866.44;;;20.88;74.88
57050;BME280;42935;50.966;16.992;2022-10-31T14:00:29;101875.81;;;21.09;72.65
57050;BME280;42935;50.966;16.992;2022-10-31T14:03:55;101881.15;;;21.18;73.28
57050;BME280;42935;50.966;16.992;2022-10-31T14:07:08;101865.60;;;20.62;74.41
57050;BME280;42935;50.966;16.992;2022-10-31T14:10:27;101865.64;;;20.68;73.69
57050;BME280;42935;50.966;16.992;2022-10-31T14:13:43;101865.71;;;20.67;77.18
57050;BME280;42935;50.966;16.992;2022-10-31T14:16:56;101870.71;;;21.02;74.25
57050;BME280;42935;50.966;16.992;2022-10-31T14:23:38;101872.30;;;20.90;72.70
57050;BME280;42935;50.966;16.992;2022-10-31T14:26:58;101867.14;;;20.92;73.98
57050;BME280;42935;50.966;16.992;2022-10-31T14:30:15;101861.39;;;20.80;74.45
57050;BME280;42935;50.966;16.992;2022-10-31T14:33:25;101871.84;;;20.75;75.35
57050;BME280;42935;50.966;16.992;2022-10-31T14:36:48;101871.34;;;20.86;75.28
57050;BME280;42935;50.966;16.992;2022-10-31T14:50:21;101863.68;;;19.86;79.88
57050;BME280;42935;50.966;16.992;2022-10-31T14:53:28;101859.73;;;20.13;79.27
57050;BME280;42935;50.966;16.992;2022-10-31T15:00:04;101861.23;;;20.06;77.62
57050;BME280;42935;50.966;16.992;2022-10-31T15:03:23;101844.16;;;19.99;76.88
57050;BME280;42935;50.966;16.992;2022-10-31T15:06:44;101862.49;;;19.91;76.19
57050;BME280;42935;50.966;16.992;2022-10-31T15:10:00;101868.17;;;19.54;77.36
57050;BME280;42935;50.966;16.992;2022-10-31T15:13:20;101864.60;;;18.85;80.75
57050;BME280;42935;50.966;16.992;2022-10-31T15:16:37;101872.01;;;18.52;82.28
57050;BME280;42935;50.966;16.992;2022-10-31T15:19:49;101878.27;;;18.50;85.35
57050;BME280;42935;50.966;16.992;2022-10-31T15:22:59;101873.51;;;18.30;87.80
57050;BME280;42935;50.966;16.992;2022-10-31T15:26:05;101878.23;;;18.10;87.38
57050;BME280;42935;50.966;16.992;2022-10-31T15:29:21;101873.99;;;17.84;90.09
57050;BME280;42935;50.966;16.992;2022-10-31T15:32:35;101864.32;;;17.56;91.92
57050;BME280;42935;50.966;16.992;2022-10-31T15:35:56;101865.98;;;17.35;95.68
57050;BME280;42935;50.966;16.992;2022-10-31T15:39:08;101871.91;;;17.11;90.31
57050;BME280;42935;50.966;16.992;2022-10-31T15:42:55;101874.20;;;16.74;92.72
57050;BME280;42935;50.966;16.992;2022-10-31T15:46:10;101875.54;;;16.61;99.82
57050;BME280;42935;50.966;16.992;2022-10-31T15:52:46;101881.17;;;16.24;100.00
57050;BME280;42935;50.966;16.992;2022-10-31T15:56:08;101882.56;;;15.49;100.00
57050;BME280;42935;50.966;16.992;2022-10-31T15:59:29;101883.44;;;15.47;100.00
57050;BME280;42935;50.966;16.992;2022-10-31T16:03:22;101882.91;;;15.15;100.00
57050;BME280;42935;50.966;16.992;2022-10-31T16:06:35;101883.06;;;15.07;100.00
57050;BME280;42935;50.966;16.992;2022-10-31T16:13:13;101885.03;;;14.64;100.00
57050;BME280;42935;50.966;16.992;2022-10-31T16:16:24;101890.22;;;14.39;100.00
57050;BME280;42935;50.966;16.992;2022-10-31T16:19:36;101886.41;;;14.10;100.00
57050;BME280;42935;50.966;16.992;2022-10-31T16:22:52;101893.79;;;14.06;100.00
57050;BME280;42935;50.966;16.992;2022-10-31T16:25:58;101892.65;;;13.90;100.00
57050;BME280;42935;50.966;16.992;2022-10-31T16:29:04;101899.24;;;13.72;100.00
57050;BME280;42935;50.966;16.992;2022-10-31T16:35:36;101897.71;;;13.31;100.00
57050;BME280;42935;50.966;16.992;2022-10-31T16:38:48;101900.03;;;13.17;100.00
57050;BME280;42935;50.966;16.992;2022-10-31T16:41:56;101893.98;;;12.94;100.00
57050;BME280;42935;50.966;16.992;2022-10-31T16:45:07;101897.17;;;12.89;100.00
57050;BME280;42935;50.966;16.992;2022-10-31T16:48:22;101890.49;;;12.74;100.00
57050;BME280;42935;50.966;16.992;2022-10-31T16:51:32;101900.18;;;12.68;100.00
57050;BME280;42935;50.966;16.992;2022-10-31T16:54:48;101898.02;;;12.49;100.00
57050;BME280;42935;50.966;16.992;2022-10-31T16:57:58;101897.00;;;12.39;100.00
57050;BME280;42935;50.966;16.992;2022-10-31T17:01:07;101898.33;;;12.30;100.00
57050;BME280;42935;50.966;16.992;2022-10-31T17:04:17;101900.20;;;12.20;100.00
57050;BME280;42935;50.966;16.992;2022-10-31T17:07:27;101889.88;;;12.06;100.00
57050;BME280;42935;50.966;16.992;2022-10-31T17:10:43;101897.09;;;12.00;100.00
57050;BME280;42935;50.966;16.992;2022-10-31T17:13:53;101892.97;;;11.89;100.00
57050;BME280;42935;50.966;16.992;2022-10-31T17:17:04;101891.02;;;11.76;100.00
57050;BME280;42935;50.966;16.992;2022-10-31T17:20:24;101888.05;;;11.66;100.00
57050;BME280;42935;50.966;16.992;2022-10-31T17:23:33;101898.73;;;11.63;100.00
57050;BME280;42935;50.966;16.992;2022-10-31T17:26:45;101896.07;;;11.52;100.00
57050;BME280;42935;50.966;16.992;2022-10-31T17:29:58;101885.69;;;11.28;100.00
57050;BME280;42935;50.966;16.992;2022-10-31T17:33:14;101902.31;;;11.24;100.00
57050;BME280;42935;50.966;16.992;2022-10-31T17:36:25;101891.66;;;11.07;100.00
57050;BME280;42935;50.966;16.992;2022-10-31T17:39:33;101903.98;;;10.97;100.00
57050;BME280;42935;50.966;16.992;2022-10-31T17:42:52;101904.26;;;10.90;100.00
57050;BME280;42935;50.966;16.992;2022-10-31T17:46:09;101903.82;;;10.85;100.00
57050;BME280;42935;50.966;16.992;2022-10-31T17:49:18;101904.05;;;10.75;100.00
57050;BME280;42935;50.966;16.992;2022-10-31T17:52:28;101897.08;;;10.46;100.00
57050;BME280;42935;50.966;16.992;2022-10-31T17:55:43;101896.71;;;10.40;100.00
57050;BME280;42935;50.966;16.992;2022-10-31T17:58:56;101886.83;;;10.12;100.00
57050;BME280;42935;50.966;16.992;2022-10-31T18:02:07;101901.59;;;10.20;100.00
57050;BME280;42935;50.966;16.992;2022-10-31T18:05:18;101901.65;;;10.06;100.00
57050;BME280;42935;50.966;16.992;2022-10-31T18:09:02;101901.29;;;10.09;100.00
57050;BME280;42935;50.966;16.992;2022-10-31T18:12:16;101895.05;;;10.08;100.00
57050;BME280;42935;50.966;16.992;2022-10-31T18:15:27;101892.33;;;10.04;100.00
57050;BME280;42935;50.966;16.992;2022-10-31T18:18:38;101898.88;;;10.19;100.00
57050;BME280;42935;50.966;16.992;2022-10-31T18:21:56;101894.05;;;10.08;100.00
57050;BME280;42935;50.966;16.992;2022-10-31T18:25:08;101894.50;;;10.10;100.00
57050;BME280;42935;50.966;16.992;2022-10-31T18:28:21;101891.88;;;10.18;100.00
57050;BME280;42935;50.966;16.992;2022-10-31T18:31:37;101891.52;;;10.15;100.00
57050;BME280;42935;50.966;16.992;2022-10-31T18:34:53;101890.55;;;9.95;100.00
57050;BME280;42935;50.966;16.992;2022-10-31T18:38:08;101897.25;;;9.91;100.00
57050;BME280;42935;50.966;16.992;2022-10-31T18:41:22;101893.29;;;9.78;100.00
57050;BME280;42935;50.966;16.992;2022-10-31T18:44:36;101892.91;;;9.65;100.00
57050;BME280;42935;50.966;16.992;2022-10-31T18:47:46;101897.05;;;9.23;100.00
57050;BME280;42935;50.966;16.992;2022-10-31T18:51:02;101898.21;;;9.04;100.00
57050;BME280;42935;50.966;16.992;2022-10-31T18:54:12;101886.27;;;8.94;100.00
57050;BME280;42935;50.966;16.992;2022-10-31T18:57:22;101895.07;;;9.13;100.00
57050;BME280;42935;50.966;16.992;2022-10-31T19:00:32;101890.88;;;9.11;100.00
57050;BME280;42935;50.966;16.992;2022-10-31T19:03:52;101887.05;;;9.03;100.00
57050;BME280;42935;50.966;16.992;2022-10-31T19:07:03;101874.84;;;8.96;100.00
57050;BME280;42935;50.966;16.992;2022-10-31T19:10:14;101871.35;;;8.95;100.00
57050;BME280;42935;50.966;16.992;2022-10-31T19:13:30;101866.77;;;9.02;100.00
57050;BME280;42935;50.966;16.992;2022-10-31T19:16:44;101866.67;;;8.94;100.00
57050;BME280;42935;50.966;16.992;2022-10-31T19:19:55;101875.45;;;8.98;100.00
57050;BME280;42935;50.966;16.992;2022-10-31T19:23:04;101875.53;;;8.76;100.00
57050;BME280;42935;50.966;16.992;2022-10-31T19:26:14;101876.88;;;8.31;100.00